createdAt,value
2022-08-26T00:00:57.710Z,17.05
2022-08-26T00:03:28.588Z,19.23
2022-08-26T00:05:58.918Z,17.63
2022-08-26T00:08:29.181Z,18.95
2022-08-26T00:10:59.964Z,17.05
2022-08-26T00:13:31.028Z,18.67
2022-08-26T00:16:02.018Z,23.27
2022-08-26T00:18:38.713Z,20.50
2022-08-26T00:21:12.389Z,19.10
2022-08-26T00:23:43.662Z,22.77
2022-08-26T00:26:16.291Z,19.80
2022-08-26T00:28:46.621Z,19.60
2022-08-26T00:31:17.086Z,22.23
2022-08-26T00:33:47.403Z,18.00
2022-08-26T00:36:20.587Z,20.65
2022-08-26T00:38:50.936Z,22.58
2022-08-26T00:41:22.848Z,18.67
2022-08-26T00:43:54.503Z,21.13
2022-08-26T00:46:30.989Z,17.70
2022-08-26T00:49:19.506Z,24.45
2022-08-26T00:51:55.797Z,19.73
2022-08-26T00:54:29.553Z,22.67
2022-08-26T00:57:04.626Z,22.25
2022-08-26T00:59:39.406Z,22.73
2022-08-26T01:02:20.160Z,29.33
2022-08-26T01:04:57.749Z,31.00
2022-08-26T01:07:31.376Z,39.25
2022-08-26T01:10:04.049Z,24.10
2022-08-26T01:12:37.532Z,23.67
2022-08-26T01:15:15.748Z,17.70
2022-08-26T01:17:47.741Z,19.38
2022-08-26T01:20:36.780Z,17.15
2022-08-26T01:23:10.559Z,19.90
2022-08-26T01:25:45.204Z,18.75
2022-08-26T01:28:23.957Z,19.85
2022-08-26T01:30:56.184Z,19.05
2022-08-26T01:33:39.963Z,14.63
2022-08-26T01:36:14.292Z,15.45
2022-08-26T01:38:46.200Z,16.25
2022-08-26T01:41:19.909Z,15.50
2022-08-26T01:44:00.281Z,15.35
2022-08-26T01:46:33.638Z,18.40
2022-08-26T01:49:08.171Z,19.42
2022-08-26T01:51:41.129Z,12.50
2022-08-26T01:54:13.869Z,13.13
2022-08-26T01:56:44.710Z,18.90
2022-08-26T01:59:18.219Z,13.93
2022-08-26T02:01:50.717Z,15.80
2022-08-26T02:04:31.837Z,16.05
2022-08-26T02:09:41.006Z,22.83
2022-08-26T02:12:14.700Z,22.92
2022-08-26T02:14:52.218Z,22.27
2022-08-26T02:17:29.817Z,26.10
2022-08-26T02:20:01.203Z,19.35
2022-08-26T02:22:34.016Z,16.40
2022-08-26T02:25:24.298Z,19.33
2022-08-26T02:27:55.242Z,21.90
2022-08-26T02:30:31.090Z,23.73
2022-08-26T02:33:05.635Z,21.20
2022-08-26T02:35:38.130Z,20.13
2022-08-26T02:38:12.541Z,26.17
2022-08-26T02:40:46.632Z,21.38
2022-08-26T02:43:18.900Z,26.42
2022-08-26T02:46:02.454Z,30.65
2022-08-26T02:48:33.673Z,24.77
2022-08-26T02:51:04.595Z,25.00
2022-08-26T02:53:35.411Z,28.05
2022-08-26T02:56:07.272Z,18.23
2022-08-26T02:58:37.945Z,30.13
2022-08-26T03:01:08.665Z,25.58
2022-08-26T03:03:39.025Z,24.98
2022-08-26T03:06:09.490Z,23.52
2022-08-26T03:08:39.881Z,21.98
2022-08-26T03:11:10.554Z,20.85
2022-08-26T03:13:42.928Z,28.05
2022-08-26T03:16:13.769Z,23.75
2022-08-26T03:18:52.070Z,23.52
2022-08-26T03:21:24.376Z,19.13
2022-08-26T03:23:54.840Z,34.80
2022-08-26T03:26:30.130Z,24.40
2022-08-26T03:29:10.771Z,27.27
2022-08-26T03:31:41.457Z,23.10
2022-08-26T03:34:13.185Z,19.98
2022-08-26T03:36:44.160Z,26.25
2022-08-26T03:39:16.050Z,19.50
2022-08-26T03:41:47.333Z,26.13
2022-08-26T03:44:17.981Z,23.80
2022-08-26T03:46:48.610Z,23.88
2022-08-26T03:49:19.552Z,21.58
2022-08-26T03:51:50.062Z,29.55
2022-08-26T03:54:20.645Z,25.02
2022-08-26T03:56:51.238Z,25.52
2022-08-26T03:59:22.167Z,27.20
2022-08-26T04:01:53.206Z,24.02
2022-08-26T04:04:24.520Z,28.25
2022-08-26T04:07:01.185Z,29.45
2022-08-26T04:09:32.755Z,25.95
2022-08-26T04:12:06.024Z,33.03
2022-08-26T04:14:38.716Z,33.72
2022-08-26T04:17:09.401Z,26.17
2022-08-26T04:19:39.791Z,27.90
2022-08-26T04:22:10.520Z,25.98
2022-08-26T04:24:41.928Z,25.35
2022-08-26T04:27:12.530Z,26.58
2022-08-26T04:29:43.967Z,26.70
2022-08-26T04:32:15.165Z,26.42
2022-08-26T04:34:47.493Z,27.10
2022-08-26T04:37:18.418Z,24.35
2022-08-26T04:39:48.895Z,22.98
2022-08-26T04:42:25.370Z,31.55
2022-08-26T04:44:57.370Z,26.70
2022-08-26T04:47:32.119Z,26.60
2022-08-26T04:50:02.886Z,26.58
2022-08-26T04:52:33.164Z,27.90
2022-08-26T04:55:03.575Z,25.58
2022-08-26T04:57:36.767Z,22.10
2022-08-26T05:00:11.044Z,20.95
2022-08-26T05:02:41.668Z,25.52
2022-08-26T05:05:13.279Z,21.55
2022-08-26T05:07:44.074Z,23.90
2022-08-26T05:10:14.885Z,22.52
2022-08-26T05:12:45.114Z,22.27
2022-08-26T05:15:15.454Z,23.17
2022-08-26T05:17:46.622Z,32.47
2022-08-26T05:20:17.471Z,26.42
2022-08-26T05:22:48.211Z,27.48
2022-08-26T05:25:20.548Z,33.10
2022-08-26T05:27:50.789Z,30.63
2022-08-26T05:30:22.277Z,28.17
2022-08-26T05:32:55.353Z,28.95
2022-08-26T05:35:26.050Z,16.08
2022-08-26T05:37:57.017Z,16.83
2022-08-26T05:40:28.732Z,15.75
2022-08-26T05:42:59.042Z,18.33
2022-08-26T05:45:30.134Z,13.30
2022-08-26T05:48:00.537Z,13.65
2022-08-26T05:50:30.912Z,19.90
2022-08-26T05:53:01.455Z,17.35
2022-08-26T05:55:32.481Z,12.52
2022-08-26T05:58:04.494Z,21.63
2022-08-26T06:00:35.197Z,19.88
2022-08-26T06:03:06.975Z,20.30
2022-08-26T06:05:43.420Z,22.75
2022-08-26T06:08:19.314Z,23.08
2022-08-26T06:10:55.025Z,21.25
2022-08-26T06:13:30.305Z,19.30
2022-08-26T06:16:05.529Z,12.52
2022-08-26T06:18:38.970Z,14.13
2022-08-26T06:21:21.473Z,13.30
2022-08-26T06:24:08.902Z,21.02
2022-08-26T06:26:40.672Z,15.65
2022-08-26T06:29:13.105Z,17.63
2022-08-26T06:31:54.759Z,14.70
2022-08-26T06:34:30.327Z,18.13
2022-08-26T06:37:04.591Z,14.93
2022-08-26T06:39:40.116Z,17.25
2022-08-26T06:42:12.830Z,14.50
2022-08-26T06:44:44.721Z,15.73
2022-08-26T06:47:15.418Z,20.00
2022-08-26T06:49:45.786Z,10.57
2022-08-26T06:52:21.190Z,13.13
2022-08-26T06:54:54.928Z,13.93
2022-08-26T06:57:25.463Z,11.52
2022-08-26T06:59:55.757Z,21.90
2022-08-26T07:02:28.475Z,13.93
2022-08-26T07:04:59.101Z,16.60
2022-08-26T07:07:29.637Z,12.48
2022-08-26T07:10:00.114Z,17.70
2022-08-26T07:12:32.003Z,10.43
2022-08-26T07:15:02.536Z,12.93
2022-08-26T07:17:34.177Z,15.05
2022-08-26T07:20:05.515Z,10.27
2022-08-26T07:22:35.899Z,8.35
2022-08-26T07:25:10.513Z,13.38
2022-08-26T07:27:41.945Z,12.27
2022-08-26T07:30:14.852Z,9.00
2022-08-26T07:32:45.556Z,11.48
2022-08-26T07:35:16.203Z,11.35
2022-08-26T07:37:48.018Z,13.45
2022-08-26T07:40:19.072Z,11.57
2022-08-26T07:42:50.704Z,8.95
2022-08-26T07:45:21.211Z,17.58
2022-08-26T07:47:51.669Z,13.85
2022-08-26T07:50:22.176Z,11.30
2022-08-26T07:53:12.755Z,10.73
2022-08-26T07:55:45.190Z,8.95
2022-08-26T07:58:15.602Z,12.75
2022-08-26T08:00:46.243Z,9.82
2022-08-26T08:03:17.274Z,9.35
2022-08-26T08:05:48.517Z,11.63
2022-08-26T08:08:27.972Z,18.85
2022-08-26T08:10:59.853Z,9.40
2022-08-26T08:13:31.407Z,13.10
2022-08-26T08:16:02.667Z,12.27
2022-08-26T08:18:34.774Z,12.85
2022-08-26T08:21:21.073Z,10.60
2022-08-26T08:23:54.014Z,20.38
2022-08-26T08:26:25.935Z,18.35
2022-08-26T08:29:03.818Z,16.25
2022-08-26T08:31:57.016Z,17.80
2022-08-26T08:34:29.059Z,14.45
2022-08-26T08:37:00.314Z,16.67
2022-08-26T08:39:34.028Z,17.75
2022-08-26T08:42:34.633Z,15.13
2022-08-26T08:45:18.501Z,11.52
2022-08-26T08:48:00.127Z,12.90
2022-08-26T08:50:40.021Z,26.65
2022-08-26T08:56:09.906Z,21.33
2022-08-26T08:59:05.899Z,16.27
2022-08-26T09:02:00.621Z,10.07
2022-08-26T09:05:09.901Z,11.93
2022-08-26T09:08:12.681Z,10.10
2022-08-26T09:10:51.955Z,9.95
2022-08-26T09:13:27.310Z,8.30
2022-08-26T09:16:15.906Z,8.98
2022-08-26T09:19:19.248Z,13.00
2022-08-26T09:21:59.107Z,11.52
2022-08-26T09:24:32.605Z,9.90
2022-08-26T09:27:03.457Z,14.25
2022-08-26T09:29:50.282Z,15.18
2022-08-26T09:32:26.262Z,9.77
2022-08-26T09:35:03.858Z,10.07
2022-08-26T09:40:29.471Z,10.20
2022-08-26T09:43:22.599Z,11.75
2022-08-26T09:45:59.752Z,12.38
2022-08-26T09:48:36.294Z,16.73
2022-08-26T09:51:26.988Z,11.77
2022-08-26T09:54:00.273Z,21.27
2022-08-26T09:56:37.142Z,16.35
2022-08-26T09:59:11.486Z,11.07
2022-08-26T10:01:45.521Z,18.27
2022-08-26T10:04:33.297Z,12.18
2022-08-26T10:07:09.396Z,17.77
2022-08-26T10:09:46.700Z,18.00
2022-08-26T10:12:25.384Z,11.63
2022-08-26T10:15:00.494Z,15.70
2022-08-26T10:17:53.432Z,12.90
2022-08-26T10:20:28.317Z,15.27
2022-08-26T10:23:20.175Z,12.23
2022-08-26T10:26:07.968Z,11.38
2022-08-26T10:29:06.045Z,13.90
2022-08-26T10:32:02.687Z,11.70
2022-08-26T10:34:35.974Z,14.40
2022-08-26T10:37:22.536Z,16.02
2022-08-26T10:40:09.857Z,13.90
2022-08-26T10:42:56.306Z,9.57
2022-08-26T10:45:32.289Z,14.57
2022-08-26T10:48:10.602Z,13.38
2022-08-26T10:50:47.473Z,13.50
2022-08-26T10:53:39.425Z,11.45
2022-08-26T10:56:50.914Z,9.30
2022-08-26T10:59:52.053Z,11.57
2022-08-26T11:02:36.345Z,10.23
2022-08-26T11:05:21.602Z,14.80
2022-08-26T11:07:57.891Z,10.90
2022-08-26T11:10:58.837Z,15.35
2022-08-26T11:14:01.916Z,9.13
2022-08-26T11:16:44.397Z,8.13
2022-08-26T11:20:02.645Z,12.40
2022-08-26T11:25:15.151Z,13.18
2022-08-26T11:27:58.293Z,9.90
2022-08-26T11:30:47.464Z,13.32
2022-08-26T11:34:04.001Z,19.23
2022-08-26T11:36:57.311Z,11.40
2022-08-26T11:39:31.984Z,15.38
2022-08-26T11:42:24.685Z,12.65
2022-08-26T11:44:59.314Z,9.70
2022-08-26T11:47:34.581Z,13.15
2022-08-26T11:50:17.482Z,16.35
2022-08-26T11:53:03.803Z,32.95
2022-08-26T11:55:44.505Z,26.75
2022-08-26T11:58:17.819Z,33.03
2022-08-26T12:01:01.907Z,34.80
2022-08-26T12:03:50.795Z,24.08
2022-08-26T12:06:31.900Z,25.35
2022-08-26T12:09:07.870Z,15.65
2022-08-26T12:11:41.534Z,27.15
2022-08-26T12:14:27.965Z,26.50
2022-08-26T12:17:10.517Z,29.33
2022-08-26T12:19:40.993Z,25.70
2022-08-26T12:22:28.891Z,20.08
2022-08-26T12:25:02.221Z,20.80
2022-08-26T12:27:35.296Z,17.02
2022-08-26T12:30:20.387Z,18.83
2022-08-26T12:32:57.988Z,22.48
2022-08-26T12:35:30.819Z,20.95
2022-08-26T12:38:03.590Z,21.65
2022-08-26T12:40:43.675Z,15.98
2022-08-26T12:43:19.340Z,20.10
2022-08-26T12:46:02.770Z,28.38
2022-08-26T12:48:40.979Z,23.13
2022-08-26T12:51:27.715Z,18.02
2022-08-26T12:53:59.054Z,23.48
2022-08-26T12:56:40.849Z,16.60
2022-08-26T12:59:25.861Z,19.63
2022-08-26T13:01:57.238Z,23.27
2022-08-26T13:04:37.300Z,20.55
2022-08-26T13:07:26.927Z,20.23
2022-08-26T13:12:32.862Z,21.17
2022-08-26T13:15:05.187Z,19.00
2022-08-26T13:17:37.994Z,28.23
2022-08-26T13:20:08.754Z,19.23
2022-08-26T13:22:42.321Z,21.17
2022-08-26T13:25:12.783Z,21.70
2022-08-26T13:27:43.167Z,27.15
2022-08-26T13:30:14.662Z,22.10
2022-08-26T13:32:45.287Z,23.20
2022-08-26T13:35:15.635Z,21.15
2022-08-26T13:37:46.691Z,21.85
2022-08-26T13:40:17.198Z,26.42
2022-08-26T13:42:49.737Z,17.92
2022-08-26T13:45:20.824Z,33.90
2022-08-26T13:47:51.188Z,36.92
2022-08-26T13:50:22.098Z,39.65
2022-08-26T13:52:52.439Z,44.25
2022-08-26T13:55:22.773Z,35.33
2022-08-26T13:57:53.227Z,30.55
2022-08-26T14:00:25.055Z,28.65
2022-08-26T14:02:55.622Z,33.10
2022-08-26T14:05:26.595Z,35.78
2022-08-26T14:07:59.090Z,35.60
2022-08-26T14:10:31.258Z,35.85
2022-08-26T14:13:01.574Z,40.38
2022-08-26T14:15:34.547Z,40.42
2022-08-26T14:18:08.309Z,39.10
2022-08-26T14:20:40.840Z,31.63
2022-08-26T14:23:20.883Z,40.67
2022-08-26T14:25:51.927Z,32.25
2022-08-26T14:28:22.391Z,27.70
2022-08-26T14:31:01.517Z,29.25
2022-08-26T14:33:38.572Z,20.98
2022-08-26T14:36:23.052Z,20.92
2022-08-26T14:38:53.430Z,26.42
2022-08-26T14:41:26.623Z,19.00
2022-08-26T14:44:02.921Z,16.85
2022-08-26T14:46:37.495Z,17.67
2022-08-26T14:49:10.529Z,31.05
2022-08-26T14:51:43.351Z,23.40
2022-08-26T14:54:15.096Z,26.23
2022-08-26T14:56:58.274Z,23.65
2022-08-26T14:59:34.409Z,23.27
2022-08-26T15:02:05.301Z,25.00
2022-08-26T15:04:35.748Z,26.00
2022-08-26T15:07:07.565Z,23.50
2022-08-26T15:09:39.432Z,33.55
2022-08-26T15:12:09.923Z,21.45
2022-08-26T15:14:40.327Z,21.38
2022-08-26T15:17:10.740Z,36.95
2022-08-26T15:19:41.066Z,30.83
2022-08-26T15:22:14.196Z,23.40
2022-08-26T15:24:44.561Z,24.60
2022-08-26T15:27:14.934Z,26.38
2022-08-26T15:29:45.933Z,24.70
2022-08-26T15:32:16.272Z,23.58
2022-08-26T15:34:46.747Z,32.75
2022-08-26T15:37:17.112Z,25.42
2022-08-26T15:39:47.412Z,20.88
2022-08-26T15:42:17.810Z,29.27
2022-08-26T15:44:49.196Z,20.85
2022-08-26T15:47:19.760Z,20.85
2022-08-26T15:49:50.530Z,26.42
2022-08-26T15:52:22.332Z,28.15
2022-08-26T15:54:52.681Z,22.70
2022-08-26T15:57:23.048Z,36.78
2022-08-26T15:59:53.967Z,33.00
2022-08-26T16:02:25.218Z,30.98
2022-08-26T16:04:56.814Z,28.13
2022-08-26T16:07:29.178Z,29.50
2022-08-26T16:09:59.532Z,28.65
2022-08-26T16:12:29.924Z,29.77
2022-08-26T16:15:00.280Z,23.52
2022-08-26T16:17:31.158Z,27.10
2022-08-26T16:20:01.920Z,31.55
2022-08-26T16:22:33.582Z,29.63
2022-08-26T16:25:04.163Z,33.72
2022-08-26T16:27:34.560Z,26.23
2022-08-26T16:30:08.112Z,27.52
2022-08-26T16:32:38.396Z,28.70
2022-08-26T16:35:09.424Z,22.15
2022-08-26T16:37:39.721Z,31.38
2022-08-26T16:40:11.945Z,25.77
2022-08-26T16:42:44.174Z,33.55
2022-08-26T16:45:15.764Z,31.17
2022-08-26T16:47:46.540Z,33.25
2022-08-26T16:50:17.222Z,30.88
2022-08-26T16:52:48.206Z,37.45
2022-08-26T16:55:25.773Z,31.20
2022-08-26T16:57:56.250Z,33.55
2022-08-26T17:00:31.199Z,34.60
2022-08-26T17:03:03.577Z,35.92
2022-08-26T17:05:34.029Z,38.22
2022-08-26T17:08:04.434Z,43.38
2022-08-26T17:10:35.317Z,43.40
2022-08-26T17:13:05.699Z,44.25
2022-08-26T17:15:36.129Z,50.35
2022-08-26T17:18:06.775Z,50.58
2022-08-26T17:20:37.422Z,45.35
2022-08-26T17:23:07.716Z,41.97
2022-08-26T17:25:38.183Z,39.75
2022-08-26T17:28:13.168Z,39.20
2022-08-26T17:30:44.411Z,36.35
2022-08-26T17:33:14.734Z,34.80
2022-08-26T17:35:47.578Z,31.85
2022-08-26T17:38:17.932Z,31.70
2022-08-26T17:40:48.447Z,30.20
2022-08-26T17:43:19.226Z,34.08
2022-08-26T17:45:50.639Z,26.35
2022-08-26T17:48:21.306Z,28.38
2022-08-26T17:50:51.624Z,27.35
2022-08-26T17:53:22.642Z,29.15
2022-08-26T17:55:53.412Z,30.92
2022-08-26T17:58:25.326Z,27.88
2022-08-26T18:00:56.700Z,25.13
2022-08-26T18:03:27.229Z,29.80
2022-08-26T18:05:59.355Z,29.80
2022-08-26T18:08:30.068Z,33.42
2022-08-26T18:11:01.095Z,37.85
2022-08-26T18:13:31.458Z,36.55
2022-08-26T18:16:01.801Z,34.15
2022-08-26T18:18:32.165Z,29.85
2022-08-26T18:21:02.501Z,31.40
2022-08-26T18:23:33.340Z,25.55
2022-08-26T18:26:03.661Z,24.08
2022-08-26T18:28:34.118Z,21.92
2022-08-26T18:31:05.628Z,23.20
2022-08-26T18:33:36.255Z,24.50
2022-08-26T18:36:07.053Z,28.77
2022-08-26T18:38:40.143Z,36.55
2022-08-26T18:41:13.180Z,30.20
2022-08-26T18:43:43.550Z,32.28
2022-08-26T18:46:14.454Z,29.90
2022-08-26T18:48:44.886Z,36.08
2022-08-26T18:51:25.593Z,30.67
2022-08-26T18:53:56.496Z,39.08
2022-08-26T18:56:26.803Z,39.92
2022-08-26T18:58:57.373Z,37.20
2022-08-26T19:01:28.468Z,33.38
2022-08-26T19:04:00.285Z,30.85
2022-08-26T19:06:34.905Z,27.27
2022-08-26T19:09:09.057Z,27.67
2022-08-26T19:11:42.772Z,27.13
2022-08-26T19:14:18.542Z,23.92
2022-08-26T19:16:50.773Z,26.77
2022-08-26T19:19:22.976Z,27.30
2022-08-26T19:21:53.784Z,26.08
2022-08-26T19:24:25.966Z,29.63
2022-08-26T19:27:00.897Z,24.38
2022-08-26T19:29:34.848Z,26.17
2022-08-26T19:32:06.439Z,29.77
2022-08-26T19:34:36.835Z,26.95
2022-08-26T19:37:07.207Z,28.25
2022-08-26T19:39:38.235Z,26.92
2022-08-26T19:42:08.685Z,29.58
2022-08-26T19:44:56.678Z,24.27
2022-08-26T19:47:27.239Z,27.55
2022-08-26T19:49:59.301Z,40.13
2022-08-26T19:52:30.007Z,26.00
2022-08-26T19:55:01.637Z,27.95
2022-08-26T19:57:32.119Z,24.13
2022-08-26T20:00:03.280Z,26.95
2022-08-26T20:02:33.699Z,24.58
2022-08-26T20:05:05.546Z,30.48
2022-08-26T20:07:36.255Z,29.55
2022-08-26T20:10:09.012Z,27.55
2022-08-26T20:12:39.334Z,25.85
2022-08-26T20:15:10.833Z,24.35
2022-08-26T20:17:41.812Z,30.73
2022-08-26T20:20:33.156Z,24.35
2022-08-26T20:23:06.384Z,28.50
2022-08-26T20:25:37.148Z,25.35
2022-08-26T20:28:07.809Z,27.58
2022-08-26T20:30:38.114Z,22.35
2022-08-26T20:33:08.761Z,26.85
2022-08-26T20:35:39.087Z,24.42
2022-08-26T20:38:09.475Z,26.52
2022-08-26T20:40:39.952Z,29.17
2022-08-26T20:43:10.511Z,27.75
2022-08-26T20:45:41.059Z,25.55
2022-08-26T20:48:11.499Z,27.25
2022-08-26T20:50:41.927Z,28.17
2022-08-26T20:53:12.273Z,24.52
2022-08-26T20:55:42.887Z,28.35
2022-08-26T20:58:13.148Z,29.63
2022-08-26T21:00:44.456Z,30.40
2022-08-26T21:03:14.800Z,33.30
2022-08-26T21:05:55.996Z,27.75
2022-08-26T21:08:26.395Z,26.00
2022-08-26T21:10:56.911Z,26.25
2022-08-26T21:13:29.050Z,26.80
2022-08-26T21:16:06.651Z,29.50
2022-08-26T21:18:37.293Z,28.60
2022-08-26T21:21:11.091Z,28.63
2022-08-26T21:23:41.773Z,30.45
2022-08-26T21:26:16.989Z,31.15
2022-08-26T21:28:48.367Z,28.23
2022-08-26T21:31:22.268Z,31.33
2022-08-26T21:33:53.133Z,26.00
2022-08-26T21:36:23.668Z,25.52
2022-08-26T21:38:54.055Z,26.52
2022-08-26T21:41:24.891Z,31.70
2022-08-26T21:44:00.044Z,28.67
2022-08-26T21:46:33.596Z,27.45
2022-08-26T21:49:06.889Z,22.13
2022-08-26T21:51:40.656Z,29.42
2022-08-26T21:54:11.999Z,25.42
2022-08-26T21:56:48.651Z,24.27
2022-08-26T21:59:21.069Z,20.40
2022-08-26T22:01:51.718Z,27.63
2022-08-26T22:04:22.119Z,29.25
2022-08-26T22:06:55.568Z,23.92
2022-08-26T22:09:28.871Z,25.58
2022-08-26T22:12:00.179Z,24.70
2022-08-26T22:14:31.151Z,28.80
2022-08-26T22:17:02.387Z,27.35
2022-08-26T22:19:33.998Z,27.95
2022-08-26T22:22:05.700Z,23.20
2022-08-26T22:24:36.017Z,25.98
2022-08-26T22:27:06.899Z,22.15
2022-08-26T22:29:37.273Z,24.58
2022-08-26T22:32:07.890Z,23.33
2022-08-26T22:34:38.155Z,23.38
2022-08-26T22:37:08.848Z,22.52
2022-08-26T22:39:39.295Z,23.73
2022-08-26T22:42:09.705Z,22.45
2022-08-26T22:44:40.097Z,25.23
2022-08-26T22:47:10.330Z,25.48
2022-08-26T22:49:40.597Z,25.10
2022-08-26T22:52:11.047Z,23.48
2022-08-26T22:54:41.326Z,19.60
2022-08-26T22:57:11.810Z,20.23
2022-08-26T22:59:42.909Z,22.45
2022-08-26T23:02:13.853Z,23.25
2022-08-26T23:04:44.175Z,19.00
2022-08-26T23:07:14.642Z,20.70
2022-08-26T23:09:45.068Z,20.88
2022-08-26T23:12:15.474Z,25.17
2022-08-26T23:14:45.944Z,24.35
2022-08-26T23:17:16.616Z,19.92
2022-08-26T23:19:46.862Z,24.17
2022-08-26T23:22:18.943Z,21.67
2022-08-26T23:24:49.194Z,23.40
2022-08-26T23:27:19.935Z,22.65
2022-08-26T23:29:50.615Z,20.08
2022-08-26T23:32:21.129Z,23.55
2022-08-26T23:34:58.434Z,23.58
2022-08-26T23:37:34.174Z,26.95
2022-08-26T23:40:10.303Z,25.55
2022-08-26T23:42:40.978Z,23.45
2022-08-26T23:45:14.813Z,23.10
2022-08-26T23:47:45.048Z,23.65
2022-08-26T23:50:16.131Z,24.85
2022-08-26T23:53:03.907Z,22.17
2022-08-26T23:55:37.959Z,24.27
2022-08-26T23:58:09.458Z,22.77
